sensor_id;sensor_type;location;lat;lon;timestamp;temperature;humidity
3256;DHT22;1640;48.504;9.224;2023-05-10T00:00:41;14.00;99.90
3256;DHT22;1640;48.504;9.224;2023-05-10T00:03:09;14.00;99.90
3256;DHT22;1640;48.504;9.224;2023-05-10T00:05:36;14.00;99.90
3256;DHT22;1640;48.504;9.224;2023-05-10T00:08:04;14.00;99.90
3256;DHT22;1640;48.504;9.224;2023-05-10T00:10:32;13.90;99.90
3256;DHT22;1640;48.504;9.224;2023-05-10T00:13:00;14.00;99.90
3256;DHT22;1640;48.504;9.224;2023-05-10T00:15:28;13.90;99.90
3256;DHT22;1640;48.504;9.224;2023-05-10T00:17:56;13.90;99.90
3256;DHT22;1640;48.504;9.224;2023-05-10T00:20:24;13.80;99.90
3256;DHT22;1640;48.504;9.224;2023-05-10T00:22:52;13.70;99.90
3256;DHT22;1640;48.504;9.224;2023-05-10T00:25:19;13.70;99.90
3256;DHT22;1640;48.504;9.224;2023-05-10T00:27:47;13.70;99.90
3256;DHT22;1640;48.504;9.224;2023-05-10T00:30:17;13.60;99.90
3256;DHT22;1640;48.504;9.224;2023-05-10T00:32:44;13.70;99.90
3256;DHT22;1640;48.504;9.224;2023-05-10T00:35:14;13.60;99.90
3256;DHT22;1640;48.504;9.224;2023-05-10T00:37:41;13.70;99.90
3256;DHT22;1640;48.504;9.224;2023-05-10T00:40:09;13.60;99.90
3256;DHT22;1640;48.504;9.224;2023-05-10T00:42:37;13.60;99.90
3256;DHT22;1640;48.504;9.224;2023-05-10T00:45:06;13.60;99.90
3256;DHT22;1640;48.504;9.224;2023-05-10T00:47:35;13.60;99.90
3256;DHT22;1640;48.504;9.224;2023-05-10T00:50:04;13.60;99.90
3256;DHT22;1640;48.504;9.224;2023-05-10T00:52:32;13.60;99.90
3256;DHT22;1640;48.504;9.224;2023-05-10T00:55:00;13.50;99.90
3256;DHT22;1640;48.504;9.224;2023-05-10T00:57:29;13.40;99.90
3256;DHT22;1640;48.504;9.224;2023-05-10T00:59:57;13.40;99.90
3256;DHT22;1640;48.504;9.224;2023-05-10T01:02:26;13.30;99.90
3256;DHT22;1640;48.504;9.224;2023-05-10T01:04:55;13.30;99.90
3256;DHT22;1640;48.504;9.224;2023-05-10T01:07:22;13.20;99.90
3256;DHT22;1640;48.504;9.224;2023-05-10T01:09:50;13.20;99.90
3256;DHT22;1640;48.504;9.224;2023-05-10T01:12:17;13.20;99.90
3256;DHT22;1640;48.504;9.224;2023-05-10T01:14:45;13.30;99.90
3256;DHT22;1640;48.504;9.224;2023-05-10T01:17:13;13.30;99.90
3256;DHT22;1640;48.504;9.224;2023-05-10T01:19:42;13.30;99.90
3256;DHT22;1640;48.504;9.224;2023-05-10T01:22:33;13.30;99.90
3256;DHT22;1640;48.504;9.224;2023-05-10T01:25:30;13.20;99.90
3256;DHT22;1640;48.504;9.224;2023-05-10T01:28:13;13.20;99.90
3256;DHT22;1640;48.504;9.224;2023-05-10T01:31:00;13.20;99.90
3256;DHT22;1640;48.504;9.224;2023-05-10T01:33:35;13.20;99.90
3256;DHT22;1640;48.504;9.224;2023-05-10T01:36:13;13.10;99.90
3256;DHT22;1640;48.504;9.224;2023-05-10T01:38:56;13.10;99.90
3256;DHT22;1640;48.504;9.224;2023-05-10T01:41:29;13.00;99.90
3256;DHT22;1640;48.504;9.224;2023-05-10T01:44:03;13.10;99.90
3256;DHT22;1640;48.504;9.224;2023-05-10T01:46:36;13.20;99.90
3256;DHT22;1640;48.504;9.224;2023-05-10T01:49:11;13.20;99.90
3256;DHT22;1640;48.504;9.224;2023-05-10T01:51:45;13.20;99.90
3256;DHT22;1640;48.504;9.224;2023-05-10T01:54:18;13.10;99.90
3256;DHT22;1640;48.504;9.224;2023-05-10T01:56:50;13.20;99.90
3256;DHT22;1640;48.504;9.224;2023-05-10T01:59:20;13.10;99.90
3256;DHT22;1640;48.504;9.224;2023-05-10T02:01:50;13.10;99.90
3256;DHT22;1640;48.504;9.224;2023-05-10T02:04:22;13.20;99.90
3256;DHT22;1640;48.504;9.224;2023-05-10T02:06:51;13.20;99.90
3256;DHT22;1640;48.504;9.224;2023-05-10T02:09:21;13.20;99.90
3256;DHT22;1640;48.504;9.224;2023-05-10T02:11:49;13.10;99.90
3256;DHT22;1640;48.504;9.224;2023-05-10T02:14:17;13.10;99.90
3256;DHT22;1640;48.504;9.224;2023-05-10T02:16:46;13.10;99.90
3256;DHT22;1640;48.504;9.224;2023-05-10T02:19:15;13.00;99.90
3256;DHT22;1640;48.504;9.224;2023-05-10T02:21:46;13.00;99.90
3256;DHT22;1640;48.504;9.224;2023-05-10T02:24:14;13.00;99.90
3256;DHT22;1640;48.504;9.224;2023-05-10T02:26:44;13.10;99.90
3256;DHT22;1640;48.504;9.224;2023-05-10T02:29:13;13.10;99.90
3256;DHT22;1640;48.504;9.224;2023-05-10T02:31:41;13.00;99.90
3256;DHT22;1640;48.504;9.224;2023-05-10T02:34:10;13.00;99.90
3256;DHT22;1640;48.504;9.224;2023-05-10T02:36:39;13.00;99.90
3256;DHT22;1640;48.504;9.224;2023-05-10T02:39:09;12.90;99.90
3256;DHT22;1640;48.504;9.224;2023-05-10T02:41:40;12.90;99.90
3256;DHT22;1640;48.504;9.224;2023-05-10T02:44:09;12.80;99.90
3256;DHT22;1640;48.504;9.224;2023-05-10T02:46:37;12.80;99.90
3256;DHT22;1640;48.504;9.224;2023-05-10T02:49:05;12.80;99.90
3256;DHT22;1640;48.504;9.224;2023-05-10T02:51:35;12.80;99.90
3256;DHT22;1640;48.504;9.224;2023-05-10T02:54:12;12.80;99.90
3256;DHT22;1640;48.504;9.224;2023-05-10T02:56:47;12.70;99.90
3256;DHT22;1640;48.504;9.224;2023-05-10T02:59:14;12.70;99.90
3256;DHT22;1640;48.504;9.224;2023-05-10T03:01:42;12.70;99.90
3256;DHT22;1640;48.504;9.224;2023-05-10T03:04:09;12.70;99.90
3256;DHT22;1640;48.504;9.224;2023-05-10T03:06:37;12.70;99.90
3256;DHT22;1640;48.504;9.224;2023-05-10T03:09:05;12.70;99.90
3256;DHT22;1640;48.504;9.224;2023-05-10T03:11:43;12.60;99.90
3256;DHT22;1640;48.504;9.224;2023-05-10T03:14:21;12.60;99.90
3256;DHT22;1640;48.504;9.224;2023-05-10T03:16:56;12.60;99.90
3256;DHT22;1640;48.504;9.224;2023-05-10T03:19:30;12.60;99.90
3256;DHT22;1640;48.504;9.224;2023-05-10T03:22:03;12.60;99.90
3256;DHT22;1640;48.504;9.224;2023-05-10T03:24:33;12.70;99.90
3256;DHT22;1640;48.504;9.224;2023-05-10T03:27:04;12.70;99.90
3256;DHT22;1640;48.504;9.224;2023-05-10T03:29:32;12.60;99.90
3256;DHT22;1640;48.504;9.224;2023-05-10T03:32:00;12.70;99.90
3256;DHT22;1640;48.504;9.224;2023-05-10T03:34:30;12.60;99.90
3256;DHT22;1640;48.504;9.224;2023-05-10T03:36:58;12.70;99.90
3256;DHT22;1640;48.504;9.224;2023-05-10T03:39:26;12.70;99.90
3256;DHT22;1640;48.504;9.224;2023-05-10T03:41:53;12.80;99.90
3256;DHT22;1640;48.504;9.224;2023-05-10T03:44:22;12.80;99.90
3256;DHT22;1640;48.504;9.224;2023-05-10T03:46:49;12.80;99.90
3256;DHT22;1640;48.504;9.224;2023-05-10T03:49:17;12.90;99.90
3256;DHT22;1640;48.504;9.224;2023-05-10T03:51:44;12.90;99.90
3256;DHT22;1640;48.504;9.224;2023-05-10T03:54:12;12.90;99.90
3256;DHT22;1640;48.504;9.224;2023-05-10T03:56:40;13.00;99.90
3256;DHT22;1640;48.504;9.224;2023-05-10T03:59:08;13.00;99.90
3256;DHT22;1640;48.504;9.224;2023-05-10T04:01:37;13.00;99.90
3256;DHT22;1640;48.504;9.224;2023-05-10T04:04:05;13.10;99.90
3256;DHT22;1640;48.504;9.224;2023-05-10T04:06:33;13.10;99.90
3256;DHT22;1640;48.504;9.224;2023-05-10T04:09:01;13.10;99.90
3256;DHT22;1640;48.504;9.224;2023-05-10T04:11:30;13.10;99.90
3256;DHT22;1640;48.504;9.224;2023-05-10T04:13:58;13.20;99.90
3256;DHT22;1640;48.504;9.224;2023-05-10T04:16:25;13.10;99.90
3256;DHT22;1640;48.504;9.224;2023-05-10T04:18:54;13.20;99.90
3256;DHT22;1640;48.504;9.224;2023-05-10T04:21:22;13.20;99.90
3256;DHT22;1640;48.504;9.224;2023-05-10T04:23:49;13.30;99.90
3256;DHT22;1640;48.504;9.224;2023-05-10T04:26:17;13.30;99.90
3256;DHT22;1640;48.504;9.224;2023-05-10T04:28:44;13.30;99.90
3256;DHT22;1640;48.504;9.224;2023-05-10T04:31:12;13.30;99.90
3256;DHT22;1640;48.504;9.224;2023-05-10T04:33:39;13.30;99.90
3256;DHT22;1640;48.504;9.224;2023-05-10T04:36:08;13.30;99.90
3256;DHT22;1640;48.504;9.224;2023-05-10T04:38:36;13.30;99.90
3256;DHT22;1640;48.504;9.224;2023-05-10T04:41:04;13.30;99.90
3256;DHT22;1640;48.504;9.224;2023-05-10T04:43:32;13.30;99.90
3256;DHT22;1640;48.504;9.224;2023-05-10T04:45:59;13.30;99.90
3256;DHT22;1640;48.504;9.224;2023-05-10T04:48:27;13.30;99.90
3256;DHT22;1640;48.504;9.224;2023-05-10T04:50:55;13.30;99.90
3256;DHT22;1640;48.504;9.224;2023-05-10T04:53:24;13.40;99.90
3256;DHT22;1640;48.504;9.224;2023-05-10T04:55:51;13.40;99.90
3256;DHT22;1640;48.504;9.224;2023-05-10T04:58:19;13.50;99.90
3256;DHT22;1640;48.504;9.224;2023-05-10T05:00:47;13.60;99.90
3256;DHT22;1640;48.504;9.224;2023-05-10T05:03:14;13.60;99.90
3256;DHT22;1640;48.504;9.224;2023-05-10T05:05:42;13.60;99.90
3256;DHT22;1640;48.504;9.224;2023-05-10T05:08:10;13.60;99.90
3256;DHT22;1640;48.504;9.224;2023-05-10T05:10:39;13.60;99.90
3256;DHT22;1640;48.504;9.224;2023-05-10T05:13:07;13.60;99.90
3256;DHT22;1640;48.504;9.224;2023-05-10T05:15:34;13.60;99.90
3256;DHT22;1640;48.504;9.224;2023-05-10T05:18:02;13.60;99.90
3256;DHT22;1640;48.504;9.224;2023-05-10T05:20:32;13.60;99.90
3256;DHT22;1640;48.504;9.224;2023-05-10T05:23:00;13.60;99.90
3256;DHT22;1640;48.504;9.224;2023-05-10T05:25:27;13.70;99.90
3256;DHT22;1640;48.504;9.224;2023-05-10T05:27:56;13.60;99.90
3256;DHT22;1640;48.504;9.224;2023-05-10T05:30:24;13.60;99.90
3256;DHT22;1640;48.504;9.224;2023-05-10T05:32:51;13.70;99.90
3256;DHT22;1640;48.504;9.224;2023-05-10T05:35:19;13.80;99.90
3256;DHT22;1640;48.504;9.224;2023-05-10T05:37:47;13.90;99.90
3256;DHT22;1640;48.504;9.224;2023-05-10T05:40:14;14.10;99.90
3256;DHT22;1640;48.504;9.224;2023-05-10T05:42:42;14.10;99.90
3256;DHT22;1640;48.504;9.224;2023-05-10T05:45:11;14.10;99.90
3256;DHT22;1640;48.504;9.224;2023-05-10T05:47:39;13.90;99.90
3256;DHT22;1640;48.504;9.224;2023-05-10T05:50:07;13.90;99.90
3256;DHT22;1640;48.504;9.224;2023-05-10T05:52:35;13.90;99.90
3256;DHT22;1640;48.504;9.224;2023-05-10T05:55:03;13.80;99.90
3256;DHT22;1640;48.504;9.224;2023-05-10T05:57:31;13.70;99.90
3256;DHT22;1640;48.504;9.224;2023-05-10T05:59:58;13.50;99.90
3256;DHT22;1640;48.504;9.224;2023-05-10T06:02:27;13.50;99.90
3256;DHT22;1640;48.504;9.224;2023-05-10T06:04:55;13.40;99.90
3256;DHT22;1640;48.504;9.224;2023-05-10T06:07:22;13.40;99.90
3256;DHT22;1640;48.504;9.224;2023-05-10T06:09:50;13.30;99.90
3256;DHT22;1640;48.504;9.224;2023-05-10T06:12:17;13.30;99.90
3256;DHT22;1640;48.504;9.224;2023-05-10T06:14:45;13.30;99.90
3256;DHT22;1640;48.504;9.224;2023-05-10T06:17:12;13.30;99.90
3256;DHT22;1640;48.504;9.224;2023-05-10T06:19:41;13.40;99.90
3256;DHT22;1640;48.504;9.224;2023-05-10T06:22:09;13.40;99.90
3256;DHT22;1640;48.504;9.224;2023-05-10T06:24:37;13.50;99.90
3256;DHT22;1640;48.504;9.224;2023-05-10T06:27:05;13.70;99.90
3256;DHT22;1640;48.504;9.224;2023-05-10T06:29:33;13.60;99.90
3256;DHT22;1640;48.504;9.224;2023-05-10T06:32:00;13.70;99.90
3256;DHT22;1640;48.504;9.224;2023-05-10T06:34:28;13.90;99.90
3256;DHT22;1640;48.504;9.224;2023-05-10T06:36:57;14.00;99.90
3256;DHT22;1640;48.504;9.224;2023-05-10T06:39:24;14.30;99.90
3256;DHT22;1640;48.504;9.224;2023-05-10T06:41:52;14.50;99.90
3256;DHT22;1640;48.504;9.224;2023-05-10T06:44:20;14.50;99.90
3256;DHT22;1640;48.504;9.224;2023-05-10T06:46:47;14.60;99.90
3256;DHT22;1640;48.504;9.224;2023-05-10T06:49:16;14.60;99.90
3256;DHT22;1640;48.504;9.224;2023-05-10T06:51:43;14.60;99.90
3256;DHT22;1640;48.504;9.224;2023-05-10T06:54:12;14.50;99.90
3256;DHT22;1640;48.504;9.224;2023-05-10T06:56:40;14.60;99.90
3256;DHT22;1640;48.504;9.224;2023-05-10T06:59:07;14.70;99.90
3256;DHT22;1640;48.504;9.224;2023-05-10T07:01:35;14.90;99.90
3256;DHT22;1640;48.504;9.224;2023-05-10T07:04:02;14.80;99.90
3256;DHT22;1640;48.504;9.224;2023-05-10T07:06:30;14.80;99.90
3256;DHT22;1640;48.504;9.224;2023-05-10T07:08:57;15.10;99.90
3256;DHT22;1640;48.504;9.224;2023-05-10T07:11:26;15.10;99.90
3256;DHT22;1640;48.504;9.224;2023-05-10T07:13:54;15.40;99.90
3256;DHT22;1640;48.504;9.224;2023-05-10T07:16:21;15.50;99.90
3256;DHT22;1640;48.504;9.224;2023-05-10T07:18:49;15.50;99.90
3256;DHT22;1640;48.504;9.224;2023-05-10T07:21:19;15.40;99.90
3256;DHT22;1640;48.504;9.224;2023-05-10T07:23:46;15.30;99.90
3256;DHT22;1640;48.504;9.224;2023-05-10T07:26:14;15.20;99.90
3256;DHT22;1640;48.504;9.224;2023-05-10T07:28:43;15.10;99.90
3256;DHT22;1640;48.504;9.224;2023-05-10T07:31:10;15.00;99.90
3256;DHT22;1640;48.504;9.224;2023-05-10T07:33:38;15.00;99.90
3256;DHT22;1640;48.504;9.224;2023-05-10T07:36:06;15.00;99.90
3256;DHT22;1640;48.504;9.224;2023-05-10T07:38:33;14.90;99.90
3256;DHT22;1640;48.504;9.224;2023-05-10T07:41:01;15.00;99.90
3256;DHT22;1640;48.504;9.224;2023-05-10T07:43:28;14.80;99.90
3256;DHT22;1640;48.504;9.224;2023-05-10T07:45:57;14.90;99.90
3256;DHT22;1640;48.504;9.224;2023-05-10T07:48:26;14.90;99.90
3256;DHT22;1640;48.504;9.224;2023-05-10T07:50:53;15.00;99.90
3256;DHT22;1640;48.504;9.224;2023-05-10T07:53:21;15.00;99.90
3256;DHT22;1640;48.504;9.224;2023-05-10T07:55:50;15.00;99.90
3256;DHT22;1640;48.504;9.224;2023-05-10T07:58:18;15.10;99.90
3256;DHT22;1640;48.504;9.224;2023-05-10T08:00:45;15.20;99.90
3256;DHT22;1640;48.504;9.224;2023-05-10T08:03:14;15.30;99.90
3256;DHT22;1640;48.504;9.224;2023-05-10T08:05:41;15.40;99.90
3256;DHT22;1640;48.504;9.224;2023-05-10T08:08:09;15.40;99.90
3256;DHT22;1640;48.504;9.224;2023-05-10T08:10:36;15.40;99.90
3256;DHT22;1640;48.504;9.224;2023-05-10T08:13:04;15.50;99.90
3256;DHT22;1640;48.504;9.224;2023-05-10T08:15:32;15.60;99.90
3256;DHT22;1640;48.504;9.224;2023-05-10T08:17:59;15.90;99.90
3256;DHT22;1640;48.504;9.224;2023-05-10T08:20:28;16.00;1.50
3256;DHT22;1640;48.504;9.224;2023-05-10T08:22:55;16.10;17.00
3256;DHT22;1640;48.504;9.224;2023-05-10T08:25:23;16.30;14.90
3256;DHT22;1640;48.504;9.224;2023-05-10T08:27:50;16.50;25.10
3256;DHT22;1640;48.504;9.224;2023-05-10T08:30:18;16.50;22.30
3256;DHT22;1640;48.504;9.224;2023-05-10T08:32:45;16.60;34.90
3256;DHT22;1640;48.504;9.224;2023-05-10T08:35:13;16.70;31.40
3256;DHT22;1640;48.504;9.224;2023-05-10T08:37:42;16.60;37.30
3256;DHT22;1640;48.504;9.224;2023-05-10T08:40:11;16.70;36.10
3256;DHT22;1640;48.504;9.224;2023-05-10T08:42:40;16.70;43.80
3256;DHT22;1640;48.504;9.224;2023-05-10T08:45:11;16.70;42.90
3256;DHT22;1640;48.504;9.224;2023-05-10T08:47:39;17.00;46.00
3256;DHT22;1640;48.504;9.224;2023-05-10T08:50:08;17.00;47.40
3256;DHT22;1640;48.504;9.224;2023-05-10T08:52:38;17.10;46.80
3256;DHT22;1640;48.504;9.224;2023-05-10T08:55:07;17.20;45.70
3256;DHT22;1640;48.504;9.224;2023-05-10T08:57:36;17.30;46.80
3256;DHT22;1640;48.504;9.224;2023-05-10T09:00:04;17.40;50.40
3256;DHT22;1640;48.504;9.224;2023-05-10T09:02:34;17.50;48.50
3256;DHT22;1640;48.504;9.224;2023-05-10T09:05:02;17.40;48.20
3256;DHT22;1640;48.504;9.224;2023-05-10T09:07:30;17.60;52.40
3256;DHT22;1640;48.504;9.224;2023-05-10T09:09:58;17.50;56.20
3256;DHT22;1640;48.504;9.224;2023-05-10T09:12:27;17.40;55.50
3256;DHT22;1640;48.504;9.224;2023-05-10T09:14:55;17.30;53.50
3256;DHT22;1640;48.504;9.224;2023-05-10T09:17:25;17.30;51.70
3256;DHT22;1640;48.504;9.224;2023-05-10T09:19:58;17.30;53.20
3256;DHT22;1640;48.504;9.224;2023-05-10T09:22:26;17.20;54.80
3256;DHT22;1640;48.504;9.224;2023-05-10T09:25:04;17.10;54.80
3256;DHT22;1640;48.504;9.224;2023-05-10T09:27:33;16.80;52.90
3256;DHT22;1640;48.504;9.224;2023-05-10T09:30:06;16.70;52.10
3256;DHT22;1640;48.504;9.224;2023-05-10T09:32:39;16.80;48.70
3256;DHT22;1640;48.504;9.224;2023-05-10T09:35:08;16.60;49.50
3256;DHT22;1640;48.504;9.224;2023-05-10T09:37:35;16.70;49.10
3256;DHT22;1640;48.504;9.224;2023-05-10T09:40:07;16.60;48.60
3256;DHT22;1640;48.504;9.224;2023-05-10T09:42:36;16.60;49.90
3256;DHT22;1640;48.504;9.224;2023-05-10T09:45:07;16.70;50.10
3256;DHT22;1640;48.504;9.224;2023-05-10T09:47:35;17.10;53.50
3256;DHT22;1640;48.504;9.224;2023-05-10T09:50:04;17.40;56.20
3256;DHT22;1640;48.504;9.224;2023-05-10T09:52:46;17.90;61.30
3256;DHT22;1640;48.504;9.224;2023-05-10T09:55:14;18.30;62.70
3256;DHT22;1640;48.504;9.224;2023-05-10T09:57:43;18.70;68.50
3256;DHT22;1640;48.504;9.224;2023-05-10T10:00:17;18.70;70.80
3256;DHT22;1640;48.504;9.224;2023-05-10T10:02:46;18.70;69.90
3256;DHT22;1640;48.504;9.224;2023-05-10T10:05:15;18.50;72.60
3256;DHT22;1640;48.504;9.224;2023-05-10T10:07:43;18.20;72.80
3256;DHT22;1640;48.504;9.224;2023-05-10T10:10:10;18.30;71.80
3256;DHT22;1640;48.504;9.224;2023-05-10T10:12:43;18.10;72.80
3256;DHT22;1640;48.504;9.224;2023-05-10T10:15:11;17.80;68.90
3256;DHT22;1640;48.504;9.224;2023-05-10T10:17:39;17.40;64.00
3256;DHT22;1640;48.504;9.224;2023-05-10T10:20:07;16.70;58.80
3256;DHT22;1640;48.504;9.224;2023-05-10T10:22:37;16.40;37.60
3256;DHT22;1640;48.504;9.224;2023-05-10T10:25:05;16.30;23.50
3256;DHT22;1640;48.504;9.224;2023-05-10T10:27:41;15.90;10.40
3256;DHT22;1640;48.504;9.224;2023-05-10T10:30:25;15.70;99.90
3256;DHT22;1640;48.504;9.224;2023-05-10T10:35:55;15.70;99.90
3256;DHT22;1640;48.504;9.224;2023-05-10T10:38:25;15.80;99.90
3256;DHT22;1640;48.504;9.224;2023-05-10T10:41:02;16.00;99.90
3256;DHT22;1640;48.504;9.224;2023-05-10T10:43:30;16.00;99.90
3256;DHT22;1640;48.504;9.224;2023-05-10T10:46:14;16.00;0.50
3256;DHT22;1640;48.504;9.224;2023-05-10T10:48:48;16.20;15.40
3256;DHT22;1640;48.504;9.224;2023-05-10T10:51:17;16.50;12.50
3256;DHT22;1640;48.504;9.224;2023-05-10T10:53:47;16.70;15.30
3256;DHT22;1640;48.504;9.224;2023-05-10T10:56:15;16.90;24.00
3256;DHT22;1640;48.504;9.224;2023-05-10T10:58:49;17.30;21.10
3256;DHT22;1640;48.504;9.224;2023-05-10T11:01:19;17.40;33.50
3256;DHT22;1640;48.504;9.224;2023-05-10T11:04:17;17.40;41.90
3256;DHT22;1640;48.504;9.224;2023-05-10T11:06:44;17.30;41.80
3256;DHT22;1640;48.504;9.224;2023-05-10T11:09:12;17.20;44.20
3256;DHT22;1640;48.504;9.224;2023-05-10T11:11:51;17.50;42.10
3256;DHT22;1640;48.504;9.224;2023-05-10T11:14:21;17.90;41.00
3256;DHT22;1640;48.504;9.224;2023-05-10T11:16:51;18.20;46.60
3256;DHT22;1640;48.504;9.224;2023-05-10T11:19:19;18.60;55.80
3256;DHT22;1640;48.504;9.224;2023-05-10T11:21:48;18.70;60.70
3256;DHT22;1640;48.504;9.224;2023-05-10T11:24:17;19.10;63.70
3256;DHT22;1640;48.504;9.224;2023-05-10T11:26:45;18.90;65.70
3256;DHT22;1640;48.504;9.224;2023-05-10T11:29:13;18.40;68.60
3256;DHT22;1640;48.504;9.224;2023-05-10T11:31:45;17.20;68.60
3256;DHT22;1640;48.504;9.224;2023-05-10T11:34:23;16.30;67.60
3256;DHT22;1640;48.504;9.224;2023-05-10T11:36:51;15.60;63.40
3256;DHT22;1640;48.504;9.224;2023-05-10T11:39:19;15.20;52.50
3256;DHT22;1640;48.504;9.224;2023-05-10T11:41:48;14.90;34.90
3256;DHT22;1640;48.504;9.224;2023-05-10T11:46:44;14.10;14.20
3256;DHT22;1640;48.504;9.224;2023-05-10T11:49:12;13.90;12.40
3256;DHT22;1640;48.504;9.224;2023-05-10T11:51:40;13.90;99.90
3256;DHT22;1640;48.504;9.224;2023-05-10T11:54:10;14.20;99.90
3256;DHT22;1640;48.504;9.224;2023-05-10T11:56:39;14.30;6.80
3256;DHT22;1640;48.504;9.224;2023-05-10T11:59:07;14.50;1.80
3256;DHT22;1640;48.504;9.224;2023-05-10T12:01:35;14.80;8.10
3256;DHT22;1640;48.504;9.224;2023-05-10T12:04:02;14.90;14.30
3256;DHT22;1640;48.504;9.224;2023-05-10T12:06:31;14.80;24.40
3256;DHT22;1640;48.504;9.224;2023-05-10T12:09:05;14.70;13.10
3256;DHT22;1640;48.504;9.224;2023-05-10T12:11:37;14.60;2.80
3256;DHT22;1640;48.504;9.224;2023-05-10T12:14:04;14.80;99.90
3256;DHT22;1640;48.504;9.224;2023-05-10T12:16:32;15.10;99.90
3256;DHT22;1640;48.504;9.224;2023-05-10T12:19:00;15.30;5.40
3256;DHT22;1640;48.504;9.224;2023-05-10T12:21:29;15.60;12.00
3256;DHT22;1640;48.504;9.224;2023-05-10T12:24:02;15.60;17.70
3256;DHT22;1640;48.504;9.224;2023-05-10T12:26:29;15.70;36.50
3256;DHT22;1640;48.504;9.224;2023-05-10T12:29:12;15.70;35.60
3256;DHT22;1640;48.504;9.224;2023-05-10T12:31:50;16.10;32.40
3256;DHT22;1640;48.504;9.224;2023-05-10T12:34:30;16.20;54.00
3256;DHT22;1640;48.504;9.224;2023-05-10T12:36:58;16.20;41.80
3256;DHT22;1640;48.504;9.224;2023-05-10T12:39:38;16.40;51.60
3256;DHT22;1640;48.504;9.224;2023-05-10T12:42:06;16.50;50.90
3256;DHT22;1640;48.504;9.224;2023-05-10T12:44:33;16.70;59.00
3256;DHT22;1640;48.504;9.224;2023-05-10T12:47:01;16.80;61.40
3256;DHT22;1640;48.504;9.224;2023-05-10T12:49:28;16.90;58.50
3256;DHT22;1640;48.504;9.224;2023-05-10T12:51:56;17.00;66.30
3256;DHT22;1640;48.504;9.224;2023-05-10T12:54:23;17.30;66.90
3256;DHT22;1640;48.504;9.224;2023-05-10T12:56:52;17.40;67.50
3256;DHT22;1640;48.504;9.224;2023-05-10T12:59:20;17.70;67.50
3256;DHT22;1640;48.504;9.224;2023-05-10T13:01:48;18.20;69.30
3256;DHT22;1640;48.504;9.224;2023-05-10T13:04:16;18.50;71.80
3256;DHT22;1640;48.504;9.224;2023-05-10T13:06:43;18.00;72.30
3256;DHT22;1640;48.504;9.224;2023-05-10T13:09:11;17.90;69.80
3256;DHT22;1640;48.504;9.224;2023-05-10T13:11:38;17.90;68.90
3256;DHT22;1640;48.504;9.224;2023-05-10T13:14:07;18.00;68.30
3256;DHT22;1640;48.504;9.224;2023-05-10T13:16:35;18.10;67.30
3256;DHT22;1640;48.504;9.224;2023-05-10T13:19:02;17.90;69.90
3256;DHT22;1640;48.504;9.224;2023-05-10T13:21:30;18.00;71.20
3256;DHT22;1640;48.504;9.224;2023-05-10T13:23:58;17.90;71.30
3256;DHT22;1640;48.504;9.224;2023-05-10T13:26:26;17.90;70.90
3256;DHT22;1640;48.504;9.224;2023-05-10T13:28:54;17.90;72.10
3256;DHT22;1640;48.504;9.224;2023-05-10T13:31:23;18.00;70.30
3256;DHT22;1640;48.504;9.224;2023-05-10T13:33:50;18.10;71.50
3256;DHT22;1640;48.504;9.224;2023-05-10T13:36:18;18.40;70.60
3256;DHT22;1640;48.504;9.224;2023-05-10T13:38:46;18.50;72.30
3256;DHT22;1640;48.504;9.224;2023-05-10T13:41:13;18.30;71.10
3256;DHT22;1640;48.504;9.224;2023-05-10T13:43:40;18.30;71.80
3256;DHT22;1640;48.504;9.224;2023-05-10T13:46:08;18.60;71.60
3256;DHT22;1640;48.504;9.224;2023-05-10T13:48:37;18.50;72.50
3256;DHT22;1640;48.504;9.224;2023-05-10T13:51:05;18.60;71.90
3256;DHT22;1640;48.504;9.224;2023-05-10T13:53:32;18.70;71.90
3256;DHT22;1640;48.504;9.224;2023-05-10T13:56:00;18.70;72.10
3256;DHT22;1640;48.504;9.224;2023-05-10T13:58:28;18.60;72.50
3256;DHT22;1640;48.504;9.224;2023-05-10T14:00:56;18.90;72.30
3256;DHT22;1640;48.504;9.224;2023-05-10T14:03:23;18.90;72.20
3256;DHT22;1640;48.504;9.224;2023-05-10T14:05:53;18.80;72.30
3256;DHT22;1640;48.504;9.224;2023-05-10T14:08:20;18.80;72.60
3256;DHT22;1640;48.504;9.224;2023-05-10T14:10:48;19.00;72.20
3256;DHT22;1640;48.504;9.224;2023-05-10T14:13:18;19.00;72.30
3256;DHT22;1640;48.504;9.224;2023-05-10T14:15:48;18.80;72.30
3256;DHT22;1640;48.504;9.224;2023-05-10T14:18:19;18.80;72.60
3256;DHT22;1640;48.504;9.224;2023-05-10T14:20:49;18.80;72.60
3256;DHT22;1640;48.504;9.224;2023-05-10T14:23:21;18.70;72.50
3256;DHT22;1640;48.504;9.224;2023-05-10T14:25:53;18.50;72.60
3256;DHT22;1640;48.504;9.224;2023-05-10T14:28:23;18.30;72.60
3256;DHT22;1640;48.504;9.224;2023-05-10T14:30:53;18.10;72.60
3256;DHT22;1640;48.504;9.224;2023-05-10T14:33:22;18.20;73.10
3256;DHT22;1640;48.504;9.224;2023-05-10T14:35:49;18.40;73.10
3256;DHT22;1640;48.504;9.224;2023-05-10T14:38:17;18.50;72.10
3256;DHT22;1640;48.504;9.224;2023-05-10T14:40:46;18.50;73.10
3256;DHT22;1640;48.504;9.224;2023-05-10T14:43:13;18.90;72.60
3256;DHT22;1640;48.504;9.224;2023-05-10T14:45:41;19.00;72.20
3256;DHT22;1640;48.504;9.224;2023-05-10T14:48:08;18.90;72.10
3256;DHT22;1640;48.504;9.224;2023-05-10T14:50:41;18.70;72.30
3256;DHT22;1640;48.504;9.224;2023-05-10T14:53:08;18.90;72.50
3256;DHT22;1640;48.504;9.224;2023-05-10T14:55:36;19.10;72.10
3256;DHT22;1640;48.504;9.224;2023-05-10T14:58:05;19.30;72.50
3256;DHT22;1640;48.504;9.224;2023-05-10T15:00:33;19.50;71.80
3256;DHT22;1640;48.504;9.224;2023-05-10T15:03:01;19.30;70.80
3256;DHT22;1640;48.504;9.224;2023-05-10T15:05:29;18.80;71.90
3256;DHT22;1640;48.504;9.224;2023-05-10T15:07:56;18.20;72.50
3256;DHT22;1640;48.504;9.224;2023-05-10T15:10:24;18.00;72.90
3256;DHT22;1640;48.504;9.224;2023-05-10T15:12:52;18.00;72.90
3256;DHT22;1640;48.504;9.224;2023-05-10T15:15:20;18.20;72.90
3256;DHT22;1640;48.504;9.224;2023-05-10T15:17:48;18.20;72.50
3256;DHT22;1640;48.504;9.224;2023-05-10T15:20:16;18.10;73.10
3256;DHT22;1640;48.504;9.224;2023-05-10T15:22:43;18.30;72.80
3256;DHT22;1640;48.504;9.224;2023-05-10T15:25:11;18.50;72.30
3256;DHT22;1640;48.504;9.224;2023-05-10T15:27:38;18.60;72.10
3256;DHT22;1640;48.504;9.224;2023-05-10T15:30:07;18.70;72.10
3256;DHT22;1640;48.504;9.224;2023-05-10T15:32:36;18.80;71.60
3256;DHT22;1640;48.504;9.224;2023-05-10T15:35:06;18.90;71.10
3256;DHT22;1640;48.504;9.224;2023-05-10T15:37:33;18.90;71.30
3256;DHT22;1640;48.504;9.224;2023-05-10T15:40:01;18.80;71.10
3256;DHT22;1640;48.504;9.224;2023-05-10T15:42:29;18.80;71.20
3256;DHT22;1640;48.504;9.224;2023-05-10T15:44:57;18.70;72.50
3256;DHT22;1640;48.504;9.224;2023-05-10T15:47:26;18.60;71.90
3256;DHT22;1640;48.504;9.224;2023-05-10T15:49:55;18.20;72.80
3256;DHT22;1640;48.504;9.224;2023-05-10T15:52:22;18.10;72.20
3256;DHT22;1640;48.504;9.224;2023-05-10T15:54:50;17.80;72.60
3256;DHT22;1640;48.504;9.224;2023-05-10T15:57:17;17.70;73.10
3256;DHT22;1640;48.504;9.224;2023-05-10T15:59:45;17.70;73.20
3256;DHT22;1640;48.504;9.224;2023-05-10T16:02:12;17.60;73.10
3256;DHT22;1640;48.504;9.224;2023-05-10T16:04:41;17.70;72.60
3256;DHT22;1640;48.504;9.224;2023-05-10T16:07:11;17.60;73.10
3256;DHT22;1640;48.504;9.224;2023-05-10T16:09:38;17.50;72.90
3256;DHT22;1640;48.504;9.224;2023-05-10T16:12:07;17.40;72.60
3256;DHT22;1640;48.504;9.224;2023-05-10T16:14:34;17.30;70.00
3256;DHT22;1640;48.504;9.224;2023-05-10T16:17:02;17.00;72.10
3256;DHT22;1640;48.504;9.224;2023-05-10T16:19:30;16.70;71.20